Time;durP1;ratioP1;P1;durP2;ratioP2;P2;SDS_P1;SDS_P2;PMS_P1;PMS_P2;Temp;Humidity;BMP_temperature;BMP_pressure;BME280_temperature;BME280_humidity;BME280_pressure;Samples;Min_cycle;Max_cycle;Signal;HPM_P1;HPM_P2
2022/06/23 00:02:19;;;;;;;3.70;1.33;;;;;;;;;;5057032;28;20033;-90
2022/06/23 00:04:45;;;;;;;2.78;1.10;;;;;;;;;;5024058;28;20116;-89
2022/06/23 00:07:18;;;;;;;2.58;1.00;;;;;;;;;;5007609;28;20131;-89
2022/06/23 00:09:43;;;;;;;2.08;1.15;;;;;;;;;;5024297;28;20032;-90
2022/06/23 00:12:18;;;;;;;2.22;1.00;;;;;;;;;;5040187;28;20502;-88
2022/06/23 00:14:47;;;;;;;2.55;1.20;;;;;;;;;;5040045;28;20159;-89
2022/06/23 00:17:25;;;;;;;1.95;1.00;;;;;;;;;;5040438;28;20064;-88
2022/06/23 00:19:54;;;;;;;3.75;1.88;;;;;;;;;;5039850;28;20071;-90
2022/06/23 00:22:20;;;;;;;1.83;0.82;;;;;;;;;;5007252;28;20040;-89
2022/06/23 00:24:48;;;;;;;3.17;1.25;;;;;;;;;;5023428;28;20032;-90
2022/06/23 00:27:14;;;;;;;2.80;1.58;;;;;;;;;;5007368;28;20514;-87
2022/06/23 00:29:40;;;;;;;2.22;1.08;;;;;;;;;;5023370;28;20067;-89
2022/06/23 00:32:06;;;;;;;3.33;1.17;;;;;;;;;;5023203;28;20491;-90
2022/06/23 00:34:35;;;;;;;2.53;0.88;;;;;;;;;;5022723;28;20040;-90
2022/06/23 00:37:15;;;;;;;1.17;0.75;;;;;;;;;;5039497;28;20029;-89
2022/06/23 00:39:59;;;;;;;2.05;0.65;;;;;;;;;;5008284;28;20497;-90
2022/06/23 00:42:38;;;;;;;4.00;1.65;;;;;;;;;;5055387;28;20053;-90
2022/06/23 00:45:10;;;;;;;2.20;1.00;;;;;;;;;;5026610;28;20058;-90
2022/06/23 00:47:45;;;;;;;2.17;1.10;;;;;;;;;;5059012;28;20410;-90
2022/06/23 00:50:31;;;;;;;1.95;1.08;;;;;;;;;;5042828;28;20040;-90
2022/06/23 00:53:12;;;;;;;2.70;1.42;;;;;;;;;;5038538;28;20457;-90
2022/06/23 00:55:52;;;;;;;2.00;0.65;;;;;;;;;;5039447;28;20048;-90
2022/06/23 00:58:47;;;;;;;2.08;0.90;;;;;;;;;;5023900;28;20498;-91
2022/06/23 01:01:24;;;;;;;3.10;1.55;;;;;;;;;;5041274;28;20036;-90
2022/06/23 01:03:55;;;;;;;2.65;0.88;;;;;;;;;;5039030;28;20504;-90
2022/06/23 01:06:29;;;;;;;2.05;0.95;;;;;;;;;;5040045;28;20041;-90
2022/06/23 01:09:36;;;;;;;2.33;1.00;;;;;;;;;;5039101;28;20036;-89
2022/06/23 01:12:12;;;;;;;3.30;1.02;;;;;;;;;;5022372;28;20112;-90
2022/06/23 01:14:48;;;;;;;2.50;1.13;;;;;;;;;;5038949;28;20060;-90
2022/06/23 01:17:20;;;;;;;2.72;1.30;;;;;;;;;;5038933;28;20586;-90
2022/06/23 01:19:57;;;;;;;3.55;1.25;;;;;;;;;;5022714;28;20037;-90
2022/06/23 01:22:30;;;;;;;4.03;1.15;;;;;;;;;;5054937;28;20044;-89
2022/06/23 01:25:17;;;;;;;3.05;1.20;;;;;;;;;;5038704;28;20032;-90
2022/06/23 01:28:03;;;;;;;2.38;1.15;;;;;;;;;;5041067;28;20441;-89
2022/06/23 01:30:35;;;;;;;2.40;1.30;;;;;;;;;;5039931;28;20043;-90
2022/06/23 01:33:14;;;;;;;2.63;1.02;;;;;;;;;;5022462;28;20402;-89
2022/06/23 01:35:44;;;;;;;2.90;1.35;;;;;;;;;;5038921;28;20036;-90
2022/06/23 01:38:21;;;;;;;2.15;1.13;;;;;;;;;;5022513;28;20448;-90
2022/06/23 01:40:55;;;;;;;2.42;1.10;;;;;;;;;;5024766;28;20036;-90
2022/06/23 01:43:32;;;;;;;2.65;1.02;;;;;;;;;;5025599;28;20028;-89
2022/06/23 01:46:01;;;;;;;2.50;1.42;;;;;;;;;;5041596;28;20036;-90
2022/06/23 01:48:52;;;;;;;2.47;1.00;;;;;;;;;;5041842;28;20066;-90
2022/06/23 01:51:20;;;;;;;2.17;0.97;;;;;;;;;;5057126;28;20406;-90
2022/06/23 01:53:46;;;;;;;4.00;1.52;;;;;;;;;;5024019;28;20088;-91
2022/06/23 01:56:17;;;;;;;3.13;1.40;;;;;;;;;;5041595;28;20044;-91
2022/06/23 01:58:51;;;;;;;3.60;1.40;;;;;;;;;;5057552;28;20448;-91
2022/06/23 02:01:37;;;;;;;2.67;1.25;;;;;;;;;;5041838;28;20123;-90
2022/06/23 02:04:09;;;;;;;2.28;1.13;;;;;;;;;;5058058;28;20039;-90
2022/06/23 02:06:52;;;;;;;2.58;1.15;;;;;;;;;;5042094;28;20721;-90
2022/06/23 02:09:22;;;;;;;2.60;1.48;;;;;;;;;;5042415;28;20036;-90
2022/06/23 02:11:48;;;;;;;3.08;1.02;;;;;;;;;;5025257;28;20028;-90
2022/06/23 02:14:17;;;;;;;2.22;1.20;;;;;;;;;;5041488;28;20028;-87
2022/06/23 02:16:45;;;;;;;2.50;0.90;;;;;;;;;;5057865;28;20032;-89
2022/06/23 02:19:20;;;;;;;2.10;1.13;;;;;;;;;;5041280;28;20036;-89
2022/06/23 02:21:48;;;;;;;3.55;1.40;;;;;;;;;;5057483;28;20518;-90
2022/06/23 02:24:16;;;;;;;2.17;1.35;;;;;;;;;;5057940;28;20051;-90
2022/06/23 02:26:57;;;;;;;1.88;1.30;;;;;;;;;;5057863;28;20028;-89
2022/06/23 02:29:31;;;;;;;1.52;1.00;;;;;;;;;;5040593;28;20067;-89
2022/06/23 02:32:21;;;;;;;2.00;1.38;;;;;;;;;;5041029;28;20032;-89
2022/06/23 02:34:51;;;;;;;2.40;1.40;;;;;;;;;;5057714;28;20064;-90
2022/06/23 02:37:51;;;;;;;2.28;1.40;;;;;;;;;;5057860;28;20028;-89
2022/06/23 02:40:21;;;;;;;2.13;0.95;;;;;;;;;;5057567;28;20040;-89
2022/06/23 02:42:54;;;;;;;3.20;1.48;;;;;;;;;;5040706;28;20047;-90
2022/06/23 02:45:24;;;;;;;3.17;1.50;;;;;;;;;;5025235;28;20036;-90
2022/06/23 02:48:09;;;;;;;1.98;1.30;;;;;;;;;;5040907;28;20039;-90
2022/06/23 02:51:02;;;;;;;2.70;1.30;;;;;;;;;;5041339;28;20032;-89
2022/06/23 02:53:35;;;;;;;2.58;1.48;;;;;;;;;;5037466;28;20038;-90
2022/06/23 02:56:23;;;;;;;2.22;1.17;;;;;;;;;;5038059;28;20074;-90
2022/06/23 02:58:52;;;;;;;2.00;1.13;;;;;;;;;;5054139;28;20033;-90
2022/06/23 03:01:22;;;;;;;2.65;1.02;;;;;;;;;;5021624;28;20041;-89
2022/06/23 03:04:03;;;;;;;2.22;1.38;;;;;;;;;;5037501;28;20090;-91
2022/06/23 03:06:41;;;;;;;2.33;1.30;;;;;;;;;;5021276;28;20042;-90
2022/06/23 03:09:20;;;;;;;3.28;1.60;;;;;;;;;;5037770;28;20036;-90
2022/06/23 03:11:58;;;;;;;1.98;1.25;;;;;;;;;;5020987;28;20033;-90
2022/06/23 03:14:50;;;;;;;2.65;1.33;;;;;;;;;;5022035;28;20479;-90
2022/06/23 03:17:33;;;;;;;1.83;1.13;;;;;;;;;;5041257;28;20137;-87
2022/06/23 03:20:03;;;;;;;1.63;1.00;;;;;;;;;;5040767;28;20033;-90
2022/06/23 03:22:37;;;;;;;2.88;1.25;;;;;;;;;;5008143;28;20040;-90
2022/06/23 03:25:12;;;;;;;2.85;1.35;;;;;;;;;;5025286;28;20037;-89
2022/06/23 03:27:46;;;;;;;1.88;1.10;;;;;;;;;;5041294;28;20043;-90
2022/06/23 03:30:17;;;;;;;2.25;1.45;;;;;;;;;;5024453;28;20025;-89
2022/06/23 03:32:46;;;;;;;2.13;1.35;;;;;;;;;;5041008;28;20059;-89
2022/06/23 03:35:22;;;;;;;2.20;1.15;;;;;;;;;;5024272;28;20032;-89
2022/06/23 03:37:55;;;;;;;2.33;1.17;;;;;;;;;;5040569;28;20037;-89
2022/06/23 03:43:27;;;;;;;2.53;1.42;;;;;;;;;;5059753;28;20171;-90
2022/06/23 03:46:23;;;;;;;1.88;1.33;;;;;;;;;;5056843;28;20090;-89
2022/06/23 03:48:52;;;;;;;2.00;1.40;;;;;;;;;;5040403;28;20068;-89
2022/06/23 03:51:40;;;;;;;3.00;1.52;;;;;;;;;;5042467;28;20067;-89
2022/06/23 03:54:14;;;;;;;2.45;1.30;;;;;;;;;;5026459;28;20106;-89
2022/06/23 03:56:49;;;;;;;4.18;1.52;;;;;;;;;;5023879;28;20039;-89
2022/06/23 03:59:16;;;;;;;2.00;1.20;;;;;;;;;;5023795;28;20028;-90
2022/06/23 04:01:49;;;;;;;2.10;1.40;;;;;;;;;;5040392;28;20033;-90
2022/06/23 04:04:20;;;;;;;2.13;1.40;;;;;;;;;;5024976;28;20035;-90
2022/06/23 04:06:47;;;;;;;2.85;1.58;;;;;;;;;;5024329;28;20024;-90
2022/06/23 04:09:22;;;;;;;2.92;1.30;;;;;;;;;;5023300;28;20032;-89
2022/06/23 04:12:02;;;;;;;2.30;1.42;;;;;;;;;;5040006;28;20552;-89
2022/06/23 04:14:32;;;;;;;1.60;1.20;;;;;;;;;;5023515;28;20033;-90
2022/06/23 04:17:15;;;;;;;2.30;1.50;;;;;;;;;;5040638;28;20040;-90
2022/06/23 04:19:50;;;;;;;2.45;1.48;;;;;;;;;;5023668;28;20040;-89
2022/06/23 04:22:18;;;;;;;2.28;1.10;;;;;;;;;;5023420;28;20498;-90
2022/06/23 04:24:45;;;;;;;3.55;1.55;;;;;;;;;;5039561;28;20579;-90
2022/06/23 04:27:18;;;;;;;2.33;1.25;;;;;;;;;;5039007;28;20036;-89
2022/06/23 04:29:43;;;;;;;3.20;1.35;;;;;;;;;;5006941;28;20060;-89
2022/06/23 04:32:13;;;;;;;3.90;1.58;;;;;;;;;;5039686;28;20620;-90
2022/06/23 04:35:03;;;;;;;1.35;0.93;;;;;;;;;;5007259;28;20546;-90
2022/06/23 04:37:49;;;;;;;4.05;1.33;;;;;;;;;;5039790;28;20071;-90
2022/06/23 04:40:37;;;;;;;2.88;1.38;;;;;;;;;;5038740;28;20059;-90
2022/06/23 04:43:12;;;;;;;2.60;1.42;;;;;;;;;;5023335;28;20040;-90
2022/06/23 04:46:01;;;;;;;2.35;1.20;;;;;;;;;;5023959;28;20036;-89
2022/06/23 04:48:39;;;;;;;2.25;1.30;;;;;;;;;;5022855;28;20031;-89
2022/06/23 04:51:30;;;;;;;3.42;1.58;;;;;;;;;;5056040;28;20036;-89
2022/06/23 04:54:10;;;;;;;2.60;1.45;;;;;;;;;;5039408;28;20044;-91
2022/06/23 04:56:54;;;;;;;3.33;1.50;;;;;;;;;;5055993;28;20043;-90
2022/06/23 04:59:38;;;;;;;2.83;1.40;;;;;;;;;;5038866;28;20032;-90
2022/06/23 05:02:29;;;;;;;2.50;1.45;;;;;;;;;;5038745;28;20043;-89
2022/06/23 05:05:00;;;;;;;3.03;1.48;;;;;;;;;;5039187;28;20025;-92
2022/06/23 05:07:29;;;;;;;3.83;1.70;;;;;;;;;;5055488;28;20043;-90
2022/06/23 05:10:04;;;;;;;4.38;1.73;;;;;;;;;;5038996;28;20037;-90
2022/06/23 05:12:42;;;;;;;3.63;2.33;;;;;;;;;;5022866;28;20090;-90
2022/06/23 05:15:17;;;;;;;5.40;1.60;;;;;;;;;;5022414;28;20033;-90
2022/06/23 05:17:51;;;;;;;3.08;1.60;;;;;;;;;;5022731;28;20028;-89
2022/06/23 05:20:22;;;;;;;11.10;1.98;;;;;;;;;;5022445;28;20067;-89
2022/06/23 05:22:47;;;;;;;3.38;1.63;;;;;;;;;;5039062;28;20037;-89
2022/06/23 05:25:16;;;;;;;4.20;1.35;;;;;;;;;;5021859;28;20499;-86
2022/06/23 05:27:43;;;;;;;6.00;1.80;;;;;;;;;;5038545;28;20032;-90
2022/06/23 05:30:14;;;;;;;8.73;1.60;;;;;;;;;;5038554;28;20037;-91
2022/06/23 05:32:50;;;;;;;7.30;2.08;;;;;;;;;;5038327;28;20506;-90
2022/06/23 05:35:15;;;;;;;6.50;3.10;;;;;;;;;;5040603;28;20036;-88
2022/06/23 05:37:51;;;;;;;7.00;3.58;;;;;;;;;;5048722;28;20028;-88
2022/06/23 05:40:22;;;;;;;7.50;3.45;;;;;;;;;;5035598;28;20028;-90
2022/06/23 05:42:49;;;;;;;8.15;3.08;;;;;;;;;;5058251;28;20468;-90
2022/06/23 05:45:22;;;;;;;5.18;3.17;;;;;;;;;;5021464;28;20414;-90
2022/06/23 05:47:48;;;;;;;6.55;2.97;;;;;;;;;;5021390;28;20040;-90
2022/06/23 05:50:26;;;;;;;6.80;2.90;;;;;;;;;;5005481;28;20582;-90
2022/06/23 05:52:59;;;;;;;6.53;3.45;;;;;;;;;;5017341;28;20032;-89
2022/06/23 05:55:53;;;;;;;6.25;3.20;;;;;;;;;;5058016;28;20077;-91
2022/06/23 05:58:26;;;;;;;5.80;3.75;;;;;;;;;;5048243;28;20079;-91
2022/06/23 06:00:54;;;;;;;7.60;3.55;;;;;;;;;;5042010;28;20043;-92
2022/06/23 06:03:27;;;;;;;7.55;3.53;;;;;;;;;;5041884;28;20043;-91
2022/06/23 06:05:56;;;;;;;4.80;3.38;;;;;;;;;;5058672;28;20028;-92
2022/06/23 06:08:28;;;;;;;7.60;3.53;;;;;;;;;;5058022;28;20024;-91
2022/06/23 06:10:54;;;;;;;;;;;;;;;;;;5007225;28;20032;-91
2022/06/23 06:13:29;;;;;;;7.55;2.78;;;;;;;;;;5054606;28;20370;-91
2022/06/23 06:15:56;;;;;;;9.57;3.78;;;;;;;;;;5053391;28;20060;-90
2022/06/23 06:18:37;;;;;;;9.18;4.07;;;;;;;;;;5021402;28;20024;-88
2022/06/23 06:21:05;;;;;;;7.47;3.87;;;;;;;;;;5005687;28;20032;-90
2022/06/23 06:23:54;;;;;;;6.65;3.28;;;;;;;;;;5038289;28;20044;-89
2022/06/23 06:26:22;;;;;;;7.45;3.75;;;;;;;;;;5037943;28;20383;-91
2022/06/23 06:28:47;;;;;;;10.80;3.30;;;;;;;;;;5005137;28;20037;-88
2022/06/23 06:31:15;;;;;;;5.78;3.40;;;;;;;;;;5021165;28;20041;-88
2022/06/23 06:33:59;;;;;;;7.13;3.88;;;;;;;;;;5020697;28;20123;-87
2022/06/23 06:36:37;;;;;;;5.72;3.20;;;;;;;;;;5069904;28;20497;-88
2022/06/23 06:39:14;;;;;;;8.75;4.13;;;;;;;;;;5040692;28;20036;-87
2022/06/23 06:41:41;;;;;;;8.43;3.65;;;;;;;;;;5040931;28;20036;-88
2022/06/23 06:44:07;;;;;;;7.97;3.80;;;;;;;;;;5020323;28;20123;-88
2022/06/23 06:46:32;;;;;;;6.40;3.55;;;;;;;;;;5020702;28;20526;-88
2022/06/23 06:48:58;;;;;;;5.25;3.35;;;;;;;;;;5037437;28;20039;-88
2022/06/23 06:51:25;;;;;;;6.72;3.80;;;;;;;;;;5024429;28;20367;-88
2022/06/23 06:54:00;;;;;;;7.15;3.40;;;;;;;;;;5024488;28;20115;-88
2022/06/23 06:56:43;;;;;;;5.35;2.90;;;;;;;;;;5074545;28;20058;-85
2022/06/23 06:59:19;;;;;;;6.38;3.03;;;;;;;;;;5057530;28;20124;-85
2022/06/23 07:01:48;;;;;;;5.18;3.22;;;;;;;;;;5040900;28;20025;-85
2022/06/23 07:04:22;;;;;;;6.05;3.60;;;;;;;;;;5057423;28;20079;-85
2022/06/23 07:06:51;;;;;;;6.90;3.55;;;;;;;;;;5040809;28;20036;-85
2022/06/23 07:09:28;;;;;;;7.32;3.20;;;;;;;;;;5040757;28;20483;-85
2022/06/23 07:12:17;;;;;;;7.38;3.80;;;;;;;;;;5073790;28;20040;-85
2022/06/23 07:15:11;;;;;;;11.20;4.30;;;;;;;;;;5040696;28;20043;-84
2022/06/23 07:17:44;;;;;;;7.90;3.42;;;;;;;;;;5051839;28;20047;-86
2022/06/23 07:20:22;;;;;;;5.88;3.00;;;;;;;;;;5044036;28;20139;-86
2022/06/23 07:22:53;;;;;;;7.90;3.72;;;;;;;;;;5044013;28;20035;-86
2022/06/23 07:25:20;;;;;;;8.77;3.97;;;;;;;;;;5060398;28;20036;-86
2022/06/23 07:28:08;;;;;;;8.73;3.38;;;;;;;;;;5027723;28;20153;-87
2022/06/23 07:30:38;;;;;;;9.13;4.07;;;;;;;;;;5060148;28;20047;-87
2022/06/23 07:33:25;;;;;;;7.30;3.10;;;;;;;;;;5027582;28;20078;-87
2022/06/23 07:36:06;;;;;;;6.53;3.10;;;;;;;;;;5045071;28;20132;-88
2022/06/23 07:38:38;;;;;;;4.88;2.90;;;;;;;;;;5043849;28;20046;-88
2022/06/23 07:41:20;;;;;;;;;;;;;;;;;;5028048;28;20111;-85
2022/06/23 07:44:02;;;;;;;6.95;3.17;;;;;;;;;;5040071;28;19923;-84
2022/06/23 07:46:28;;;;;;;8.40;3.22;;;;;;;;;;5073105;28;20591;-83
2022/06/23 07:48:53;;;;;;;6.97;3.50;;;;;;;;;;5039603;28;20033;-84
2022/06/23 07:51:19;;;;;;;5.95;3.25;;;;;;;;;;5056638;28;20029;-85
2022/06/23 07:53:47;;;;;;;8.43;3.25;;;;;;;;;;5039617;28;20120;-85
2022/06/23 07:56:20;;;;;;;7.07;3.08;;;;;;;;;;5056837;28;20588;-84
2022/06/23 07:58:47;;;;;;;6.78;2.92;;;;;;;;;;5039588;28;20028;-83
2022/06/23 08:01:17;;;;;;;8.52;3.33;;;;;;;;;;5038734;28;20491;-84
2022/06/23 08:03:46;;;;;;;6.80;2.97;;;;;;;;;;5056055;28;20144;-83
2022/06/23 08:06:13;;;;;;;12.02;3.90;;;;;;;;;;5072761;28;20127;-84
2022/06/23 08:08:38;;;;;;;8.23;3.45;;;;;;;;;;5039372;28;20032;-84
2022/06/23 08:13:55;;;;;;;8.52;4.10;;;;;;;;;;5055657;28;20021;-83
2022/06/23 08:19:19;;;;;;;9.68;3.10;;;;;;;;;;5056000;28;20064;-83
2022/06/23 08:21:48;;;;;;;8.60;3.40;;;;;;;;;;5055611;28;20043;-83
2022/06/23 08:24:15;;;;;;;10.90;3.58;;;;;;;;;;5038925;28;20043;-83
2022/06/23 08:26:43;;;;;;;6.45;2.75;;;;;;;;;;5055647;28;20040;-84
2022/06/23 08:29:14;;;;;;;6.70;3.20;;;;;;;;;;5055511;28;20033;-83
2022/06/23 08:31:39;;;;;;;5.80;3.78;;;;;;;;;;5038702;28;20060;-84
2022/06/23 08:34:08;;;;;;;7.30;3.17;;;;;;;;;;5055552;28;20028;-83
2022/06/23 08:36:47;;;;;;;7.10;3.40;;;;;;;;;;5042028;28;20040;-83
2022/06/23 08:39:26;;;;;;;7.70;3.20;;;;;;;;;;5042508;28;20119;-83
2022/06/23 08:42:04;;;;;;;8.05;3.83;;;;;;;;;;5047097;28;20479;-85
2022/06/23 08:44:35;;;;;;;11.82;4.90;;;;;;;;;;5042268;28;20409;-84
2022/06/23 08:47:05;;;;;;;10.07;4.57;;;;;;;;;;5041900;28;20043;-83
2022/06/23 08:49:39;;;;;;;9.15;3.97;;;;;;;;;;5041842;28;20397;-83
2022/06/23 08:52:19;;;;;;;7.05;3.30;;;;;;;;;;5025894;28;20031;-83
2022/06/23 08:54:50;;;;;;;8.45;3.30;;;;;;;;;;5043330;28;20044;-83
2022/06/23 08:57:21;;;;;;;10.48;3.67;;;;;;;;;;5042473;28;20059;-84
2022/06/23 09:00:05;;;;;;;7.35;4.63;;;;;;;;;;5074471;28;20061;-84
2022/06/23 09:02:30;;;;;;;12.30;5.55;;;;;;;;;;5026928;28;20036;-85
2022/06/23 09:05:14;;;;;;;8.23;4.22;;;;;;;;;;5075531;28;20039;-86
2022/06/23 09:07:40;;;;;;;7.38;3.83;;;;;;;;;;5058389;28;20489;-86
2022/06/23 09:10:15;;;;;;;6.50;3.90;;;;;;;;;;5058330;28;20024;-86
2022/06/23 09:12:48;;;;;;;7.10;3.65;;;;;;;;;;5058008;28;20040;-84
2022/06/23 09:15:25;;;;;;;8.30;3.85;;;;;;;;;;5057962;28;20064;-85
2022/06/23 09:18:04;;;;;;;4.95;3.00;;;;;;;;;;5055101;28;20044;-85
2022/06/23 09:21:07;;;;;;;6.07;2.80;;;;;;;;;;5038289;28;20033;-86
2022/06/23 09:23:44;;;;;;;4.78;2.67;;;;;;;;;;5038042;28;20028;-86
2022/06/23 09:26:36;;;;;;;5.28;3.17;;;;;;;;;;5038267;28;20048;-86
2022/06/23 09:29:17;;;;;;;5.85;2.60;;;;;;;;;;5021358;28;20448;-84
2022/06/23 09:31:52;;;;;;;5.53;2.45;;;;;;;;;;5021655;28;20567;-86
2022/06/23 09:34:24;;;;;;;7.85;2.90;;;;;;;;;;5005912;28;20058;-85
2022/06/23 09:37:01;;;;;;;5.00;2.45;;;;;;;;;;5057086;28;20028;-86
2022/06/23 09:39:47;;;;;;;6.95;2.35;;;;;;;;;;5058125;28;20032;-86
2022/06/23 09:42:49;;;;;;;7.22;2.83;;;;;;;;;;5041627;28;20028;-87
2022/06/23 09:45:41;;;;;;;7.13;2.65;;;;;;;;;;5054237;28;20043;-86
2022/06/23 09:48:12;;;;;;;4.88;2.55;;;;;;;;;;5024356;28;20032;-86
2022/06/23 09:51:11;;;;;;;8.13;2.17;;;;;;;;;;5054735;28;20560;-87
2022/06/23 09:54:05;;;;;;;6.82;3.10;;;;;;;;;;5054452;28;20159;-87
2022/06/23 09:56:50;;;;;;;5.32;2.42;;;;;;;;;;5054646;28;20127;-86
2022/06/23 09:59:19;;;;;;;6.45;2.50;;;;;;;;;;5037123;28;20032;-86
2022/06/23 10:01:49;;;;;;;6.82;2.40;;;;;;;;;;5054561;28;20060;-85
2022/06/23 10:04:18;;;;;;;4.10;2.20;;;;;;;;;;5037863;28;20033;-86
2022/06/23 10:07:05;;;;;;;2.83;1.80;;;;;;;;;;5054260;28;20033;-86
2022/06/23 10:10:01;;;;;;;4.53;2.20;;;;;;;;;;5021380;28;20067;-86
2022/06/23 10:12:49;;;;;;;5.20;2.05;;;;;;;;;;5022589;28;20032;-86
2022/06/23 10:15:24;;;;;;;5.50;2.00;;;;;;;;;;5023932;28;20033;-86
2022/06/23 10:18:14;;;;;;;6.25;2.40;;;;;;;;;;5057701;28;20032;-87
2022/06/23 10:21:08;;;;;;;6.65;2.20;;;;;;;;;;5057394;28;20126;-86
2022/06/23 10:23:44;;;;;;;4.45;1.83;;;;;;;;;;5057426;28;20042;-87
2022/06/23 10:26:25;;;;;;;3.65;1.90;;;;;;;;;;5060772;28;20039;-86
2022/06/23 10:29:09;;;;;;;5.00;2.33;;;;;;;;;;5061560;28;20505;-86
2022/06/23 10:31:53;;;;;;;3.70;2.05;;;;;;;;;;5045027;28;20043;-87
2022/06/23 10:34:48;;;;;;;7.43;2.40;;;;;;;;;;5061612;28;20074;-87
2022/06/23 10:37:29;;;;;;;5.47;1.73;;;;;;;;;;5061608;28;20044;-87
2022/06/23 10:40:09;;;;;;;5.70;2.45;;;;;;;;;;5061838;28;20028;-87
2022/06/23 10:43:18;;;;;;;4.85;1.95;;;;;;;;;;5061343;28;20051;-87
2022/06/23 10:46:13;;;;;;;4.72;2.20;;;;;;;;;;5024871;28;20039;-86
2022/06/23 10:49:00;;;;;;;4.10;1.63;;;;;;;;;;5041367;28;20041;-86
2022/06/23 10:51:34;;;;;;;3.30;2.00;;;;;;;;;;5041140;28;20029;-86
2022/06/23 10:54:16;;;;;;;4.80;2.10;;;;;;;;;;5041465;28;20089;-86
2022/06/23 10:57:16;;;;;;;3.53;1.30;;;;;;;;;;5041234;28;20078;-86
2022/06/23 11:00:01;;;;;;;3.85;1.77;;;;;;;;;;5040919;28;20040;-89
2022/06/23 11:02:57;;;;;;;3.53;1.23;;;;;;;;;;5041276;28;20115;-87
2022/06/23 11:05:22;;;;;;;4.22;1.77;;;;;;;;;;5041058;28;20106;-86
2022/06/23 11:08:12;;;;;;;4.97;2.15;;;;;;;;;;5041302;28;20109;-86
2022/06/23 11:11:00;;;;;;;4.68;1.70;;;;;;;;;;5040479;28;20025;-86
2022/06/23 11:13:45;;;;;;;3.45;1.50;;;;;;;;;;5045058;28;20040;-85
2022/06/23 11:16:57;;;;;;;2.67;1.60;;;;;;;;;;5041876;28;20078;-87
2022/06/23 11:19:33;;;;;;;;;;;;;;;;;;5042031;28;20440;-87
2022/06/23 11:22:01;;;;;;;6.03;1.55;;;;;;;;;;5044651;28;19927;-89
2022/06/23 11:24:36;;;;;;;6.75;2.15;;;;;;;;;;5061257;28;20035;-86
2022/06/23 11:27:46;;;;;;;5.72;2.28;;;;;;;;;;5061300;28;20052;-89
2022/06/23 11:30:13;;;;;;;8.80;2.08;;;;;;;;;;5044714;28;20532;-89
2022/06/23 11:33:09;;;;;;;6.00;2.38;;;;;;;;;;5049343;28;20044;-89
2022/06/23 11:36:09;;;;;;;5.82;2.10;;;;;;;;;;5029628;28;20029;-90
2022/06/23 11:38:54;;;;;;;6.88;1.85;;;;;;;;;;5040827;28;20032;-88
2022/06/23 11:41:51;;;;;;;5.32;2.00;;;;;;;;;;5024560;28;20033;-89
2022/06/23 11:44:39;;;;;;;9.00;2.55;;;;;;;;;;5024382;28;20067;-89
2022/06/23 11:47:20;;;;;;;5.15;1.80;;;;;;;;;;5041206;28;20450;-89
2022/06/23 11:50:11;;;;;;;5.68;1.77;;;;;;;;;;5041078;28;20052;-89
2022/06/23 11:52:54;;;;;;;4.20;1.63;;;;;;;;;;5011037;28;20028;-89
2022/06/23 11:55:27;;;;;;;6.05;2.05;;;;;;;;;;5024224;28;20131;-91
2022/06/23 11:58:16;;;;;;;7.47;2.00;;;;;;;;;;5040835;28;20025;-89
2022/06/23 12:00:47;;;;;;;6.30;2.15;;;;;;;;;;5040622;28;20037;-88
2022/06/23 12:03:49;;;;;;;6.90;1.70;;;;;;;;;;5024590;28;20437;-90
2022/06/23 12:06:54;;;;;;;4.60;2.17;;;;;;;;;;5041222;28;20028;-90
2022/06/23 12:09:28;;;;;;;5.18;1.83;;;;;;;;;;5040488;28;20479;-90
2022/06/23 12:11:55;;;;;;;5.13;2.50;;;;;;;;;;5023879;28;20047;-89
2022/06/23 12:14:27;;;;;;;6.28;2.88;;;;;;;;;;5023997;28;20406;-90
2022/06/23 12:17:14;;;;;;;5.97;1.95;;;;;;;;;;5040687;28;20037;-89
2022/06/23 12:20:15;;;;;;;9.70;3.70;;;;;;;;;;5034390;28;20036;-90
2022/06/23 12:23:18;;;;;;;31.15;19.50;;;;;;;;;;5039020;28;20055;-89
2022/06/23 12:26:11;;;;;;;30.10;16.27;;;;;;;;;;5039007;28;20462;-83
2022/06/23 12:28:58;;;;;;;29.25;16.80;;;;;;;;;;5039029;28;20127;-84
2022/06/23 12:31:38;;;;;;;19.25;12.23;;;;;;;;;;5038512;28;20028;-86
2022/06/23 12:34:33;;;;;;;15.07;7.90;;;;;;;;;;5039362;28;20036;-83
2022/06/23 12:37:11;;;;;;;10.20;4.40;;;;;;;;;;5038339;28;20056;-85
2022/06/23 12:39:48;;;;;;;7.50;3.55;;;;;;;;;;5039023;28;20036;-83
2022/06/23 12:42:35;;;;;;;7.38;2.40;;;;;;;;;;5034493;28;20040;-86
2022/06/23 12:45:34;;;;;;;5.80;1.90;;;;;;;;;;5038847;28;20422;-86
2022/06/23 12:48:25;;;;;;;7.50;2.00;;;;;;;;;;5054999;28;20047;-87
2022/06/23 12:51:00;;;;;;;6.10;2.30;;;;;;;;;;5031540;28;20047;-87
2022/06/23 12:53:30;;;;;;;7.47;3.08;;;;;;;;;;5055363;28;20036;-87
2022/06/23 12:56:15;;;;;;;10.10;2.25;;;;;;;;;;5038972;28;20032;-87
2022/06/23 12:58:47;;;;;;;4.82;1.88;;;;;;;;;;5022744;28;20556;-86
2022/06/23 13:01:20;;;;;;;5.43;1.70;;;;;;;;;;5004390;28;20039;-87
2022/06/23 13:04:09;;;;;;;8.45;2.10;;;;;;;;;;5020670;28;20039;-87
2022/06/23 13:06:43;;;;;;;4.10;1.90;;;;;;;;;;5022370;28;20036;-85
2022/06/23 13:09:28;;;;;;;5.32;2.28;;;;;;;;;;5074589;28;20118;-86
2022/06/23 13:12:10;;;;;;;4.68;1.77;;;;;;;;;;5058162;28;20051;-86
2022/06/23 13:14:48;;;;;;;4.60;1.60;;;;;;;;;;5057705;28;20036;-86
2022/06/23 13:17:26;;;;;;;3.88;1.58;;;;;;;;;;5042371;28;20043;-86
2022/06/23 13:20:19;;;;;;;4.65;1.52;;;;;;;;;;5058549;28;20032;-86
2022/06/23 13:23:10;;;;;;;6.20;1.95;;;;;;;;;;5056155;28;20074;-86
2022/06/23 13:26:01;;;;;;;6.05;1.80;;;;;;;;;;5019245;28;20494;-85
2022/06/23 13:28:35;;;;;;;3.00;1.30;;;;;;;;;;5039095;28;20050;-87
2022/06/23 13:31:23;;;;;;;6.65;2.00;;;;;;;;;;5039452;28;20036;-86
2022/06/23 13:33:56;;;;;;;6.43;2.28;;;;;;;;;;5055447;28;20040;-86
2022/06/23 13:36:41;;;;;;;11.38;2.25;;;;;;;;;;5037561;28;20044;-86
2022/06/23 13:39:28;;;;;;;7.35;2.17;;;;;;;;;;5054468;28;20078;-86
2022/06/23 13:42:00;;;;;;;8.40;2.10;;;;;;;;;;5050502;28;20028;-87
2022/06/23 13:44:28;;;;;;;4.38;1.77;;;;;;;;;;5058045;28;20449;-87
2022/06/23 13:47:22;;;;;;;8.10;2.25;;;;;;;;;;5057864;28;20036;-88
2022/06/23 13:50:00;;;;;;;5.32;1.75;;;;;;;;;;5043663;28;20127;-88
2022/06/23 13:52:29;;;;;;;4.88;1.95;;;;;;;;;;5043301;28;20036;-88
2022/06/23 13:55:05;;;;;;;5.82;1.40;;;;;;;;;;5058540;28;20030;-88
2022/06/23 13:57:45;;;;;;;8.93;2.53;;;;;;;;;;5026765;28;20032;-88
2022/06/23 14:00:29;;;;;;;6.85;1.67;;;;;;;;;;5024519;28;20081;-87
2022/06/23 14:03:31;;;;;;;13.13;2.97;;;;;;;;;;5058140;28;20028;-87
2022/06/23 14:06:03;;;;;;;13.93;2.50;;;;;;;;;;5042852;28;20096;-86
2022/06/23 14:08:37;;;;;;;;;;;;;;;;;;5041528;28;20282;-86
2022/06/23 14:11:33;;;;;;;7.38;1.80;;;;;;;;;;5057279;28;19912;-86
2022/06/23 14:14:01;;;;;;;4.07;1.88;;;;;;;;;;5074175;28;20054;-86
2022/06/23 14:17:00;;;;;;;7.97;1.67;;;;;;;;;;5020554;28;20552;-85
2022/06/23 14:19:53;;;;;;;6.22;1.80;;;;;;;;;;5036693;28;20131;-85
2022/06/23 14:22:22;;;;;;;4.28;1.73;;;;;;;;;;5053935;28;20041;-86
2022/06/23 14:24:52;;;;;;;5.25;2.05;;;;;;;;;;5054060;28;20090;-85
2022/06/23 14:27:33;;;;;;;5.28;1.75;;;;;;;;;;5037552;28;20043;-84
2022/06/23 14:30:29;;;;;;;5.00;2.15;;;;;;;;;;5036434;28;20406;-85
2022/06/23 14:33:27;;;;;;;8.48;2.05;;;;;;;;;;5053608;28;20033;-85
2022/06/23 14:36:11;;;;;;;6.60;2.03;;;;;;;;;;5049857;28;20036;-86
2022/06/23 14:38:45;;;;;;;7.15;2.22;;;;;;;;;;5042379;28;20032;-86
2022/06/23 14:41:37;;;;;;;5.32;1.80;;;;;;;;;;5039705;28;20072;-85
2022/06/23 14:44:28;;;;;;;5.22;2.53;;;;;;;;;;5030941;28;20118;-85
2022/06/23 14:47:17;;;;;;;10.90;2.45;;;;;;;;;;5073638;28;20036;-85
2022/06/23 14:49:53;;;;;;;6.97;2.85;;;;;;;;;;5041446;28;20036;-85
2022/06/23 14:52:33;;;;;;;4.95;1.55;;;;;;;;;;5040587;28;20082;-86
2022/06/23 14:55:23;;;;;;;6.22;2.38;;;;;;;;;;5039494;28;20039;-84
2022/06/23 14:58:01;;;;;;;6.13;2.17;;;;;;;;;;5058919;28;20429;-85
2022/06/23 15:00:57;;;;;;;5.63;1.92;;;;;;;;;;5056433;28;20032;-85
2022/06/23 15:03:31;;;;;;;4.88;1.90;;;;;;;;;;5025989;28;20028;-85
2022/06/23 15:06:06;;;;;;;6.82;1.95;;;;;;;;;;5041293;28;20036;-85
2022/06/23 15:08:43;;;;;;;11.13;2.08;;;;;;;;;;5072293;28;20040;-86
2022/06/23 15:11:19;;;;;;;5.20;2.15;;;;;;;;;;5057962;28;20044;-85
2022/06/23 15:13:48;;;;;;;4.43;1.80;;;;;;;;;;5043777;28;20500;-85
2022/06/23 15:16:19;;;;;;;6.25;2.08;;;;;;;;;;5055664;28;20067;-83
2022/06/23 15:18:57;;;;;;;6.63;2.58;;;;;;;;;;5056808;28;20036;-85
2022/06/23 15:24:31;;;;;;;8.75;3.03;;;;;;;;;;5042592;28;20090;-82
2022/06/23 15:27:24;;;;;;;7.50;1.83;;;;;;;;;;5040753;28;20111;-84
2022/06/23 15:29:52;;;;;;;7.45;2.00;;;;;;;;;;5029219;28;20076;-83
2022/06/23 15:32:32;;;;;;;6.78;1.90;;;;;;;;;;5006871;28;20123;-84
2022/06/23 15:35:33;;;;;;;5.55;1.70;;;;;;;;;;5008385;28;20509;-83
2022/06/23 15:38:12;;;;;;;7.03;2.25;;;;;;;;;;5048748;28;20037;-83
2022/06/23 15:41:17;;;;;;;4.65;1.73;;;;;;;;;;5039878;28;20086;-83
2022/06/23 15:44:02;;;;;;;7.13;3.03;;;;;;;;;;5055798;28;20524;-83
2022/06/23 15:47:15;;;;;;;4.55;1.70;;;;;;;;;;5039449;28;20110;-83
2022/06/23 15:50:02;;;;;;;6.15;2.33;;;;;;;;;;5056169;28;20040;-83
2022/06/23 15:52:34;;;;;;;5.30;2.20;;;;;;;;;;5024301;28;20032;-82
2022/06/23 15:55:07;;;;;;;5.10;2.00;;;;;;;;;;5021898;28;20032;-82
2022/06/23 15:57:35;;;;;;;4.60;1.70;;;;;;;;;;5038448;28;20498;-82
2022/06/23 16:00:02;;;;;;;5.30;1.80;;;;;;;;;;5038614;28;20060;-83
2022/06/23 16:02:46;;;;;;;5.93;1.80;;;;;;;;;;5056708;28;20089;-82